Time;durP1;ratioP1;P1;durP2;ratioP2;P2;SDS_P1;SDS_P2;PMS_P1;PMS_P2;Temp;Humidity;BMP_temperature;BMP_pressure;BME280_temperature;BME280_humidity;BME280_pressure;Samples;Min_cycle;Max_cycle;Signal;HPM_P1;HPM_P2
2023/01/19 00:02:01;;;;;;;;;;;;;;;;;;7364564;19;1862;-69
2023/01/19 00:04:29;;;;;;;;;;;;;;;;;;7363562;19;1365;-69
2023/01/19 00:06:57;;;;;;;;;;;;;;;;;;7370583;19;1820;-71
2023/01/19 00:09:32;;;;;;;;;;;;;;;;;;7366985;19;837;-70
2023/01/19 00:12:00;;;;;;;;;;;;;;;;;;7372750;19;812;-71
2023/01/19 00:14:28;;;;;;;;;;;;;;;;;;7371322;19;1286;-70
2023/01/19 00:16:56;;;;;;;;;;;;;;;;;;7372517;19;819;-70
2023/01/19 00:19:24;;;;;;;;;;;;;;;;;;7371404;19;981;-71
2023/01/19 00:21:52;;;;;;;;;;;;;;;;;;7375644;19;2232;-70
2023/01/19 00:24:21;;;;;;;;;;;;;;;;;;7370151;19;1325;-70
2023/01/19 00:26:49;;;;;;;;;;;;;;;;;;7372451;19;851;-71
2023/01/19 00:29:17;;;;;;;;;;;;;;;;;;7371228;19;819;-70
2023/01/19 00:31:45;;;;;;;;;;;;;;;;;;7370138;19;903;-70
2023/01/19 00:34:13;;;;;;;;;;;;;;;;;;7370459;19;1279;-70
2023/01/19 00:36:42;;;;;;;;;;;;;;;;;;7376047;19;1756;-71
2023/01/19 00:39:10;;;;;;;;;;;;;;;;;;7372613;19;1946;-71
2023/01/19 00:44:18;;;;;;;;;;;;;;;;;;7368119;19;1298;-71
2023/01/19 00:46:47;;;;;;;;;;;;;;;;;;7370170;19;791;-70
2023/01/19 00:49:15;;;;;;;;;;;;;;;;;;7371001;19;859;-73
2023/01/19 00:51:43;;;;;;;;;;;;;;;;;;7375137;19;1870;-72
2023/01/19 00:54:11;;;;;;;;;;;;;;;;;;7369952;19;1287;-72
2023/01/19 00:56:39;;;;;;;;;;;;;;;;;;7370605;19;815;-72
2023/01/19 00:59:07;;;;;;;;;;;;;;;;;;7372226;19;2149;-72
2023/01/19 01:01:35;;;;;;;;;;;;;;;;;;7370381;19;1845;-71
2023/01/19 01:04:04;;;;;;;;;;;;;;;;;;7370688;19;1323;-70
2023/01/19 01:06:32;;;;;;;;;;;;;;;;;;7372388;19;751;-71
2023/01/19 01:09:10;;;;;;;;;;;;;;;;;;7370967;19;828;-72
2023/01/19 01:11:38;;;;;;;;;;;;;;;;;;7371483;19;766;-72
2023/01/19 01:14:06;;;;;;;;;;;;;;;;;;7375371;19;1799;-71
2023/01/19 01:16:35;;;;;;;;;;;;;;;;;;7370892;19;869;-72
2023/01/19 01:19:03;;;;;;;;;;;;;;;;;;7372004;19;858;-71
2023/01/19 01:21:33;;;;;;;;;;;;;;;;;;7374328;19;1850;-71
2023/01/19 01:24:01;;;;;;;;;;;;;;;;;;7372473;19;1274;-71
2023/01/19 01:26:29;;;;;;;;;;;;;;;;;;7373887;19;872;-71
2023/01/19 01:28:57;;;;;;;;;;;;;;;;;;7372142;19;898;-71
2023/01/19 01:31:26;;;;;;;;;;;;;;;;;;7371606;19;842;-71
2023/01/19 01:33:54;;;;;;;;;;;;;;;;;;7370208;19;1368;-72
2023/01/19 01:36:22;;;;;;;;;;;;;;;;;;7370128;19;827;-72
2023/01/19 01:38:50;;;;;;;;;;;;;;;;;;7370753;19;806;-73
2023/01/19 01:41:18;;;;;;;;;;;;;;;;;;7371387;19;814;-74
2023/01/19 01:43:46;;;;;;;;;;;;;;;;;;7367201;19;1858;-72
2023/01/19 01:46:16;;;;;;;;;;;;;;;;;;7370200;19;769;-72
2023/01/19 01:48:44;;;;;;;;;;;;;;;;;;7370571;19;946;-71
2023/01/19 01:51:27;;;;;;;;;;;;;;;;;;7370690;19;819;-71
2023/01/19 01:53:56;;;;;;;;;;;;;;;;;;7369795;19;1353;-72
2023/01/19 01:56:24;;;;;;;;;;;;;;;;;;7370920;19;775;-72
2023/01/19 01:58:52;;;;;;;;;;;;;;;;;;7369883;19;788;-73
2023/01/19 02:04:01;;;;;;;;;;;;;;;;;;7367209;19;1299;-72
2023/01/19 02:06:29;;;;;;;;;;;;;;;;;;7374939;19;1684;-72
2023/01/19 02:14:18;;;;;;;;;;;;;;;;;;7366295;19;1291;-71
2023/01/19 02:16:46;;;;;;;;;;;;;;;;;;7369386;19;794;-71
2023/01/19 02:19:15;;;;;;;;;;;;;;;;;;7368679;19;811;-72
2023/01/19 02:21:44;;;;;;;;;;;;;;;;;;7373308;19;1846;-71
2023/01/19 02:24:12;;;;;;;;;;;;;;;;;;7369325;19;1924;-72
2023/01/19 02:26:40;;;;;;;;;;;;;;;;;;7369402;19;836;-73
2023/01/19 02:29:08;;;;;;;;;;;;;;;;;;7367750;19;799;-72
2023/01/19 02:31:36;;;;;;;;;;;;;;;;;;7368139;19;760;-72
2023/01/19 02:34:04;;;;;;;;;;;;;;;;;;7367181;19;1290;-73
2023/01/19 02:36:36;;;;;;;;;;;;;;;;;;7364178;19;1108;-74
2023/01/19 02:39:04;;;;;;;;;;;;;;;;;;7368646;19;1832;-73
2023/01/19 02:41:32;;;;;;;;;;;;;;;;;;7367954;19;803;-72
2023/01/19 02:44:00;;;;;;;;;;;;;;;;;;7365079;19;1857;-71
2023/01/19 02:46:28;;;;;;;;;;;;;;;;;;7368349;19;786;-71
2023/01/19 02:48:56;;;;;;;;;;;;;;;;;;7366759;19;830;-71
2023/01/19 02:51:24;;;;;;;;;;;;;;;;;;7370933;19;1830;-70
2023/01/19 02:53:53;;;;;;;;;;;;;;;;;;7365366;19;1279;-72
2023/01/19 02:56:22;;;;;;;;;;;;;;;;;;7368027;19;814;-71
2023/01/19 02:58:50;;;;;;;;;;;;;;;;;;7368114;19;1901;-72
2023/01/19 03:01:18;;;;;;;;;;;;;;;;;;7368154;19;861;-71
2023/01/19 03:03:46;;;;;;;;;;;;;;;;;;7365267;19;1850;-71
2023/01/19 03:06:14;;;;;;;;;;;;;;;;;;7367408;19;862;-71
2023/01/19 03:08:43;;;;;;;;;;;;;;;;;;7367366;19;788;-71
2023/01/19 03:11:11;;;;;;;;;;;;;;;;;;7368074;19;823;-72
2023/01/19 03:13:39;;;;;;;;;;;;;;;;;;7366644;19;1953;-72
2023/01/19 03:16:07;;;;;;;;;;;;;;;;;;7367860;19;885;-70
2023/01/19 03:18:35;;;;;;;;;;;;;;;;;;7366511;19;798;-70
2023/01/19 03:21:03;;;;;;;;;;;;;;;;;;7369782;19;1720;-71
2023/01/19 03:23:32;;;;;;;;;;;;;;;;;;7365380;19;1853;-71
2023/01/19 03:26:00;;;;;;;;;;;;;;;;;;7367437;19;795;-70
2023/01/19 03:28:28;;;;;;;;;;;;;;;;;;7366425;19;818;-69
2023/01/19 03:30:56;;;;;;;;;;;;;;;;;;7367124;19;870;-69
2023/01/19 03:33:26;;;;;;;;;;;;;;;;;;7364765;19;1360;-69
2023/01/19 03:35:54;;;;;;;;;;;;;;;;;;7370063;19;1640;-69
2023/01/19 03:38:22;;;;;;;;;;;;;;;;;;7366343;19;808;-69
2023/01/19 03:40:50;;;;;;;;;;;;;;;;;;7367201;19;878;-72
2023/01/19 03:43:18;;;;;;;;;;;;;;;;;;7364559;19;1853;-71
2023/01/19 03:45:46;;;;;;;;;;;;;;;;;;7366136;19;804;-70
2023/01/19 03:48:15;;;;;;;;;;;;;;;;;;7365608;19;803;-70
2023/01/19 03:50:43;;;;;;;;;;;;;;;;;;7367613;19;1865;-70
2023/01/19 03:53:11;;;;;;;;;;;;;;;;;;7366975;19;1271;-70
2023/01/19 03:55:39;;;;;;;;;;;;;;;;;;7366652;19;838;-70
2023/01/19 03:58:07;;;;;;;;;;;;;;;;;;7365428;19;850;-70
2023/01/19 04:00:35;;;;;;;;;;;;;;;;;;7366132;19;831;-70
2023/01/19 04:03:03;;;;;;;;;;;;;;;;;;7365768;19;1833;-70
2023/01/19 04:05:32;;;;;;;;;;;;;;;;;;7367387;19;1904;-70
2023/01/19 04:08:00;;;;;;;;;;;;;;;;;;7365279;19;833;-70
2023/01/19 04:10:28;;;;;;;;;;;;;;;;;;7366210;19;810;-71
2023/01/19 04:12:56;;;;;;;;;;;;;;;;;;7364572;19;859;-71
2023/01/19 04:15:25;;;;;;;;;;;;;;;;;;7365806;19;804;-71
2023/01/19 04:17:53;;;;;;;;;;;;;;;;;;7364763;19;830;-71
2023/01/19 04:20:21;;;;;;;;;;;;;;;;;;7366375;19;1852;-70
2023/01/19 04:22:50;;;;;;;;;;;;;;;;;;7363909;19;1846;-70
2023/01/19 04:25:18;;;;;;;;;;;;;;;;;;7362668;19;1261;-70
2023/01/19 04:27:46;;;;;;;;;;;;;;;;;;7364372;19;818;-70
2023/01/19 04:30:14;;;;;;;;;;;;;;;;;;7365985;19;846;-70
2023/01/19 04:32:43;;;;;;;;;;;;;;;;;;7364066;19;840;-71
2023/01/19 04:35:11;;;;;;;;;;;;;;;;;;7363743;19;1710;-70
2023/01/19 04:37:39;;;;;;;;;;;;;;;;;;7365398;19;849;-71
2023/01/19 04:40:07;;;;;;;;;;;;;;;;;;7365381;19;802;-71
2023/01/19 04:42:35;;;;;;;;;;;;;;;;;;7363534;19;1845;-70
2023/01/19 04:45:03;;;;;;;;;;;;;;;;;;7362746;19;1259;-70
2023/01/19 04:47:31;;;;;;;;;;;;;;;;;;7366064;19;780;-71
2023/01/19 04:50:00;;;;;;;;;;;;;;;;;;7376113;19;1779;-71
2023/01/19 04:52:33;;;;;;;;;;;;;;;;;;7378654;19;866;-70
2023/01/19 04:55:01;;;;;;;;;;;;;;;;;;7380183;19;1329;-70
2023/01/19 04:57:30;;;;;;;;;;;;;;;;;;7390166;19;959;-71
2023/01/19 04:59:58;;;;;;;;;;;;;;;;;;7389875;19;846;-70
2023/01/19 05:02:26;;;;;;;;;;;;;;;;;;7389878;19;1213;-70
2023/01/19 05:04:54;;;;;;;;;;;;;;;;;;7389167;19;1926;-71
2023/01/19 05:07:22;;;;;;;;;;;;;;;;;;7391283;19;876;-71
2023/01/19 05:09:50;;;;;;;;;;;;;;;;;;7389200;19;869;-70
2023/01/19 05:12:19;;;;;;;;;;;;;;;;;;7392471;19;1812;-71
2023/01/19 05:14:47;;;;;;;;;;;;;;;;;;7383608;19;1274;-71
2023/01/19 05:17:15;;;;;;;;;;;;;;;;;;7372581;19;862;-70
2023/01/19 05:19:43;;;;;;;;;;;;;;;;;;7371976;19;819;-70
2023/01/19 05:22:11;;;;;;;;;;;;;;;;;;7372894;19;775;-70
2023/01/19 05:24:39;;;;;;;;;;;;;;;;;;7372062;19;1860;-70
2023/01/19 05:27:08;;;;;;;;;;;;;;;;;;7371699;19;835;-70
2023/01/19 05:29:36;;;;;;;;;;;;;;;;;;7370299;19;872;-70
2023/01/19 05:32:04;;;;;;;;;;;;;;;;;;7371235;19;888;-70
2023/01/19 05:34:32;;;;;;;;;;;;;;;;;;7370499;19;1740;-71
2023/01/19 05:37:00;;;;;;;;;;;;;;;;;;7370817;19;846;-70
2023/01/19 05:39:29;;;;;;;;;;;;;;;;;;7371096;19;808;-70
2023/01/19 05:41:57;;;;;;;;;;;;;;;;;;7371978;19;1861;-71
2023/01/19 05:44:25;;;;;;;;;;;;;;;;;;7369116;19;1840;-70
2023/01/19 05:46:53;;;;;;;;;;;;;;;;;;7371415;19;814;-71
2023/01/19 05:49:21;;;;;;;;;;;;;;;;;;7371312;19;784;-72
2023/01/19 05:51:49;;;;;;;;;;;;;;;;;;7371521;19;803;-71
2023/01/19 05:54:18;;;;;;;;;;;;;;;;;;7368711;19;1275;-71
2023/01/19 05:56:46;;;;;;;;;;;;;;;;;;7374616;19;1853;-71
2023/01/19 05:59:16;;;;;;;;;;;;;;;;;;7368917;19;891;-72
2023/01/19 06:01:44;;;;;;;;;;;;;;;;;;7371090;19;813;-72
2023/01/19 06:04:12;;;;;;;;;;;;;;;;;;7368986;19;1883;-71
2023/01/19 06:06:40;;;;;;;;;;;;;;;;;;7369683;19;866;-71
2023/01/19 06:09:08;;;;;;;;;;;;;;;;;;7369726;19;1883;-72
2023/01/19 06:11:37;;;;;;;;;;;;;;;;;;7370197;19;740;-71
2023/01/19 06:14:05;;;;;;;;;;;;;;;;;;7369796;19;1278;-71
2023/01/19 06:16:33;;;;;;;;;;;;;;;;;;7370488;19;795;-71
2023/01/19 06:19:01;;;;;;;;;;;;;;;;;;7370638;19;811;-70
2023/01/19 06:21:29;;;;;;;;;;;;;;;;;;7371138;19;1149;-71
2023/01/19 06:23:57;;;;;;;;;;;;;;;;;;7369491;19;1957;-71
2023/01/19 06:26:26;;;;;;;;;;;;;;;;;;7370371;19;854;-74
2023/01/19 06:28:54;;;;;;;;;;;;;;;;;;7370240;19;814;-72
2023/01/19 06:31:22;;;;;;;;;;;;;;;;;;7370440;19;772;-72
2023/01/19 06:33:50;;;;;;;;;;;;;;;;;;7369491;19;1286;-72
2023/01/19 06:36:18;;;;;;;;;;;;;;;;;;7370684;19;818;-72
2023/01/19 06:38:46;;;;;;;;;;;;;;;;;;7372187;19;1165;-73
2023/01/19 06:41:15;;;;;;;;;;;;;;;;;;7372958;19;1912;-73
2023/01/19 06:43:43;;;;;;;;;;;;;;;;;;7369485;19;1842;-74
2023/01/19 06:46:12;;;;;;;;;;;;;;;;;;7373405;19;1684;-70
2023/01/19 06:48:40;;;;;;;;;;;;;;;;;;7366130;19;779;-71
2023/01/19 06:51:08;;;;;;;;;;;;;;;;;;7367175;19;795;-71
2023/01/19 06:53:37;;;;;;;;;;;;;;;;;;7366696;19;1353;-71
2023/01/19 06:56:06;;;;;;;;;;;;;;;;;;7369274;19;798;-72
2023/01/19 06:58:34;;;;;;;;;;;;;;;;;;7367756;19;1919;-71
2023/01/19 07:01:02;;;;;;;;;;;;;;;;;;7371843;19;1851;-72
2023/01/19 07:03:30;;;;;;;;;;;;;;;;;;7368132;19;1836;-71
2023/01/19 07:06:01;;;;;;;;;;;;;;;;;;7369866;19;873;-71
2023/01/19 07:08:29;;;;;;;;;;;;;;;;;;7368838;19;736;-71
2023/01/19 07:10:57;;;;;;;;;;;;;;;;;;7367712;19;827;-72
2023/01/19 07:13:25;;;;;;;;;;;;;;;;;;7368637;19;1286;-73
2023/01/19 07:15:53;;;;;;;;;;;;;;;;;;7368847;19;854;-74
2023/01/19 07:18:21;;;;;;;;;;;;;;;;;;7366715;19;762;-74
2023/01/19 07:20:50;;;;;;;;;;;;;;;;;;7368596;19;830;-73
2023/01/19 07:23:19;;;;;;;;;;;;;;;;;;7368769;19;1859;-72
2023/01/19 07:25:47;;;;;;;;;;;;;;;;;;7368900;19;800;-72
2023/01/19 07:28:15;;;;;;;;;;;;;;;;;;7369336;19;1951;-72
2023/01/19 07:30:44;;;;;;;;;;;;;;;;;;7368668;19;768;-72
2023/01/19 07:33:13;;;;;;;;;;;;;;;;;;7368252;19;1341;-71
2023/01/19 07:35:41;;;;;;;;;;;;;;;;;;7368984;19;792;-75
2023/01/19 07:38:09;;;;;;;;;;;;;;;;;;7369152;19;933;-75
2023/01/19 07:40:37;;;;;;;;;;;;;;;;;;7368505;19;831;-73
2023/01/19 07:43:06;;;;;;;;;;;;;;;;;;7367704;19;1341;-71
2023/01/19 07:45:34;;;;;;;;;;;;;;;;;;7365301;19;1853;-74
2023/01/19 07:48:02;;;;;;;;;;;;;;;;;;7367192;19;775;-71
2023/01/19 07:50:30;;;;;;;;;;;;;;;;;;7368004;19;844;-75
2023/01/19 07:52:58;;;;;;;;;;;;;;;;;;7368672;19;819;-75
2023/01/19 07:55:27;;;;;;;;;;;;;;;;;;7369235;19;862;-72
2023/01/19 07:57:55;;;;;;;;;;;;;;;;;;7366786;19;869;-73
2023/01/19 08:00:24;;;;;;;;;;;;;;;;;;7366904;19;952;-73
2023/01/19 08:02:52;;;;;;;;;;;;;;;;;;7367975;19;890;-72
2023/01/19 08:05:20;;;;;;;;;;;;;;;;;;7364723;19;1857;-75
2023/01/19 08:07:49;;;;;;;;;;;;;;;;;;7368949;19;814;-74
2023/01/19 08:10:17;;;;;;;;;;;;;;;;;;7368062;19;799;-74
2023/01/19 08:12:45;;;;;;;;;;;;;;;;;;7371018;19;1406;-75
2023/01/19 08:15:14;;;;;;;;;;;;;;;;;;7364991;19;1267;-74
2023/01/19 08:17:43;;;;;;;;;;;;;;;;;;7366236;19;855;-74
2023/01/19 08:20:11;;;;;;;;;;;;;;;;;;7368422;19;854;-73
2023/01/19 08:22:39;;;;;;;;;;;;;;;;;;7370654;19;1672;-74
2023/01/19 08:25:08;;;;;;;;;;;;;;;;;;7366842;19;1854;-74
2023/01/19 08:27:36;;;;;;;;;;;;;;;;;;7368500;19;804;-71
2023/01/19 08:30:04;;;;;;;;;;;;;;;;;;7370405;19;788;-73
2023/01/19 08:32:32;;;;;;;;;;;;;;;;;;7374056;19;819;-74
2023/01/19 08:35:00;;;;;;;;;;;;;;;;;;7372551;19;1306;-74
2023/01/19 08:37:29;;;;;;;;;;;;;;;;;;7376349;19;747;-77
2023/01/19 08:39:57;;;;;;;;;;;;;;;;;;7375436;19;855;-73
2023/01/19 08:42:26;;;;;;;;;;;;;;;;;;7372361;19;801;-73
2023/01/19 08:44:54;;;;;;;;;;;;;;;;;;7370798;19;1849;-75
2023/01/19 08:47:22;;;;;;;;;;;;;;;;;;7372002;19;772;-75
2023/01/19 08:49:50;;;;;;;;;;;;;;;;;;7369584;19;752;-74
2023/01/19 08:52:18;;;;;;;;;;;;;;;;;;7371566;19;823;-73
2023/01/19 08:54:46;;;;;;;;;;;;;;;;;;7373744;19;1732;-73
2023/01/19 08:57:15;;;;;;;;;;;;;;;;;;7377795;19;2086;-73
2023/01/19 08:59:46;;;;;;;;;;;;;;;;;;7372443;19;810;-72
2023/01/19 09:02:14;;;;;;;;;;;;;;;;;;7371355;19;1703;-72
2023/01/19 09:04:42;;;;;;;;;;;;;;;;;;7370274;19;1868;-72
2023/01/19 09:07:10;;;;;;;;;;;;;;;;;;7372038;19;821;-72
2023/01/19 09:09:42;;;;;;;;;;;;;;;;;;7371910;19;870;-75
2023/01/19 09:12:10;;;;;;;;;;;;;;;;;;7373431;19;569;-75
2023/01/19 09:14:38;;;;;;;;;;;;;;;;;;7370513;19;1290;-73
2023/01/19 09:17:07;;;;;;;;;;;;;;;;;;7371097;19;1643;-75
2023/01/19 09:19:35;;;;;;;;;;;;;;;;;;7371566;19;818;-71
2023/01/19 09:22:04;;;;;;;;;;;;;;;;;;7371447;19;835;-73
2023/01/19 09:24:33;;;;;;;;;;;;;;;;;;7369851;19;1838;-73
2023/01/19 09:27:01;;;;;;;;;;;;;;;;;;7373311;19;1849;-74
2023/01/19 09:29:30;;;;;;;;;;;;;;;;;;7371065;19;795;-74
2023/01/19 09:31:59;;;;;;;;;;;;;;;;;;7370633;19;806;-73
2023/01/19 09:34:27;;;;;;;;;;;;;;;;;;7369943;19;1690;-73
2023/01/19 09:36:55;;;;;;;;;;;;;;;;;;7373452;19;929;-73
2023/01/19 09:39:23;;;;;;;;;;;;;;;;;;7371046;19;859;-73
2023/01/19 09:41:51;;;;;;;;;;;;;;;;;;7369385;19;823;-74
2023/01/19 09:44:19;;;;;;;;;;;;;;;;;;7369504;19;1829;-75
2023/01/19 09:46:48;;;;;;;;;;;;;;;;;;7370003;19;863;-74
2023/01/19 09:49:16;;;;;;;;;;;;;;;;;;7370334;19;799;-76
2023/01/19 09:51:44;;;;;;;;;;;;;;;;;;7374560;19;1410;-73
2023/01/19 09:54:12;;;;;;;;;;;;;;;;;;7369154;19;1388;-74
2023/01/19 09:56:41;;;;;;;;;;;;;;;;;;7370887;19;798;-75
2023/01/19 09:59:09;;;;;;;;;;;;;;;;;;7369986;19;788;-74
2023/01/19 10:01:37;;;;;;;;;;;;;;;;;;7370567;19;788;-74
2023/01/19 10:04:05;;;;;;;;;;;;;;;;;;7369114;19;1851;-73
2023/01/19 10:06:33;;;;;;;;;;;;;;;;;;7370410;19;743;-75
2023/01/19 10:09:02;;;;;;;;;;;;;;;;;;7369347;19;910;-73
2023/01/19 10:11:31;;;;;;;;;;;;;;;;;;7370917;19;910;-73
2023/01/19 10:13:59;;;;;;;;;;;;;;;;;;7369432;19;1274;-73
2023/01/19 10:16:30;;;;;;;;;;;;;;;;;;7368149;19;813;-73
2023/01/19 10:18:58;;;;;;;;;;;;;;;;;;7370071;19;671;-73
2023/01/19 10:21:26;;;;;;;;;;;;;;;;;;7368442;19;881;-73
2023/01/19 10:23:55;;;;;;;;;;;;;;;;;;7369234;19;1333;-73
2023/01/19 10:26:23;;;;;;;;;;;;;;;;;;7367614;19;1846;-74
2023/01/19 10:28:51;;;;;;;;;;;;;;;;;;7369060;19;838;-74
2023/01/19 10:31:19;;;;;;;;;;;;;;;;;;7369604;19;786;-73
2023/01/19 10:33:47;;;;;;;;;;;;;;;;;;7368619;19;1360;-73
2023/01/19 10:36:15;;;;;;;;;;;;;;;;;;7369538;19;799;-72
2023/01/19 10:38:43;;;;;;;;;;;;;;;;;;7368291;19;862;-70
2023/01/19 10:41:12;;;;;;;;;;;;;;;;;;7367945;19;853;-73
2023/01/19 10:43:40;;;;;;;;;;;;;;;;;;7367923;19;1376;-73
2023/01/19 10:46:08;;;;;;;;;;;;;;;;;;7367237;19;1834;-75
2023/01/19 10:48:36;;;;;;;;;;;;;;;;;;7368863;19;843;-74
2023/01/19 10:51:04;;;;;;;;;;;;;;;;;;7370868;19;806;-74
2023/01/19 10:53:33;;;;;;;;;;;;;;;;;;7368430;19;1329;-73
2023/01/19 10:56:01;;;;;;;;;;;;;;;;;;7370141;19;858;-74
2023/01/19 10:58:29;;;;;;;;;;;;;;;;;;7368274;19;868;-74
2023/01/19 11:00:57;;;;;;;;;;;;;;;;;;7369252;19;855;-74
2023/01/19 11:03:25;;;;;;;;;;;;;;;;;;7369285;19;1346;-74
2023/01/19 11:05:53;;;;;;;;;;;;;;;;;;7371302;19;1853;-74
2023/01/19 11:08:22;;;;;;;;;;;;;;;;;;7369242;19;788;-74
2023/01/19 11:10:50;;;;;;;;;;;;;;;;;;7370625;19;846;-74
2023/01/19 11:13:18;;;;;;;;;;;;;;;;;;7368593;19;1833;-73
2023/01/19 11:15:46;;;;;;;;;;;;;;;;;;7368574;19;826;-76
2023/01/19 11:18:14;;;;;;;;;;;;;;;;;;7370287;19;807;-73
2023/01/19 11:20:44;;;;;;;;;;;;;;;;;;7369130;19;783;-76
2023/01/19 11:23:13;;;;;;;;;;;;;;;;;;7369707;19;1357;-72
2023/01/19 11:25:41;;;;;;;;;;;;;;;;;;7367303;19;1824;-73
2023/01/19 11:28:09;;;;;;;;;;;;;;;;;;7368835;19;784;-73
2023/01/19 11:30:38;;;;;;;;;;;;;;;;;;7369654;19;815;-73
2023/01/19 11:33:06;;;;;;;;;;;;;;;;;;7369381;19;1346;-73
2023/01/19 11:35:34;;;;;;;;;;;;;;;;;;7369093;19;821;-75
2023/01/19 11:38:02;;;;;;;;;;;;;;;;;;7368711;19;814;-73
2023/01/19 11:40:30;;;;;;;;;;;;;;;;;;7368619;19;865;-74
2023/01/19 11:42:59;;;;;;;;;;;;;;;;;;7371743;19;813;-77
2023/01/19 11:45:28;;;;;;;;;;;;;;;;;;7370012;19;1849;-76
2023/01/19 11:47:56;;;;;;;;;;;;;;;;;;7370847;19;840;-76
2023/01/19 11:50:24;;;;;;;;;;;;;;;;;;7371493;19;803;-75
2023/01/19 11:52:52;;;;;;;;;;;;;;;;;;7370452;19;794;-76
2023/01/19 11:55:20;;;;;;;;;;;;;;;;;;7368097;19;1247;-75
2023/01/19 11:57:48;;;;;;;;;;;;;;;;;;7371376;19;807;-75
2023/01/19 12:00:17;;;;;;;;;;;;;;;;;;7369181;19;791;-76
2023/01/19 12:02:45;;;;;;;;;;;;;;;;;;7369012;19;1055;-75
2023/01/19 12:05:13;;;;;;;;;;;;;;;;;;7368057;19;1814;-74
2023/01/19 12:07:41;;;;;;;;;;;;;;;;;;7377336;19;815;-76
2023/01/19 12:10:09;;;;;;;;;;;;;;;;;;7374227;19;909;-77
2023/01/19 12:12:39;;;;;;;;;;;;;;;;;;7375299;19;811;-75
2023/01/19 12:15:07;;;;;;;;;;;;;;;;;;7372883;19;1313;-75
2023/01/19 12:17:35;;;;;;;;;;;;;;;;;;7374141;19;787;-76
2023/01/19 12:20:03;;;;;;;;;;;;;;;;;;7374506;19;746;-75
2023/01/19 12:22:32;;;;;;;;;;;;;;;;;;7374599;19;790;-75
2023/01/19 12:25:00;;;;;;;;;;;;;;;;;;7372750;19;1841;-75
2023/01/19 12:27:28;;;;;;;;;;;;;;;;;;7374593;19;870;-74
2023/01/19 12:29:56;;;;;;;;;;;;;;;;;;7373667;19;775;-77
2023/01/19 12:32:24;;;;;;;;;;;;;;;;;;7374790;19;798;-76
2023/01/19 12:34:54;;;;;;;;;;;;;;;;;;7371538;19;1345;-75
2023/01/19 12:37:22;;;;;;;;;;;;;;;;;;7373089;19;899;-74
2023/01/19 12:39:50;;;;;;;;;;;;;;;;;;7372732;19;810;-74
2023/01/19 12:42:19;;;;;;;;;;;;;;;;;;7374510;19;808;-75
2023/01/19 12:44:47;;;;;;;;;;;;;;;;;;7371814;19;1349;-76
2023/01/19 12:47:15;;;;;;;;;;;;;;;;;;7370894;19;1822;-75
2023/01/19 12:49:43;;;;;;;;;;;;;;;;;;7372398;19;591;-74
2023/01/19 12:52:11;;;;;;;;;;;;;;;;;;7371943;19;829;-74
2023/01/19 12:54:40;;;;;;;;;;;;;;;;;;7370982;19;1325;-75
2023/01/19 12:57:08;;;;;;;;;;;;;;;;;;7370852;19;757;-75
2023/01/19 12:59:36;;;;;;;;;;;;;;;;;;7373285;19;752;-76
2023/01/19 13:02:04;;;;;;;;;;;;;;;;;;7374473;19;784;-75
2023/01/19 13:04:32;;;;;;;;;;;;;;;;;;7373032;19;1312;-76
2023/01/19 13:07:04;;;;;;;;;;;;;;;;;;7370006;19;1839;-76
2023/01/19 13:09:32;;;;;;;;;;;;;;;;;;7374146;19;589;-76
2023/01/19 13:12:01;;;;;;;;;;;;;;;;;;7373817;19;811;-75
2023/01/19 13:14:29;;;;;;;;;;;;;;;;;;7371509;19;1254;-76
2023/01/19 13:16:57;;;;;;;;;;;;;;;;;;7371478;19;803;-76
2023/01/19 13:19:25;;;;;;;;;;;;;;;;;;7372859;19;826;-75
2023/01/19 13:21:54;;;;;;;;;;;;;;;;;;7376865;19;1461;-76
2023/01/19 13:24:22;;;;;;;;;;;;;;;;;;7372292;19;1349;-76
2023/01/19 13:26:50;;;;;;;;;;;;;;;;;;7372175;19;1842;-76
2023/01/19 13:29:20;;;;;;;;;;;;;;;;;;7372628;19;802;-76
2023/01/19 13:31:52;;;;;;;;;;;;;;;;;;7374101;19;666;-77
2023/01/19 13:34:23;;;;;;;;;;;;;;;;;;7373238;19;1324;-76
2023/01/19 13:36:51;;;;;;;;;;;;;;;;;;7372194;19;906;-75
2023/01/19 13:39:20;;;;;;;;;;;;;;;;;;7371378;19;897;-75
2023/01/19 13:41:48;;;;;;;;;;;;;;;;;;7372434;19;802;-75
2023/01/19 13:44:16;;;;;;;;;;;;;;;;;;7374219;19;1743;-77
2023/01/19 13:46:45;;;;;;;;;;;;;;;;;;7370809;19;1834;-76
2023/01/19 13:49:13;;;;;;;;;;;;;;;;;;7372886;19;838;-77
2023/01/19 13:51:41;;;;;;;;;;;;;;;;;;7371964;19;820;-75
2023/01/19 13:54:09;;;;;;;;;;;;;;;;;;7369419;19;1302;-73
2023/01/19 13:56:39;;;;;;;;;;;;;;;;;;7372362;19;835;-76
2023/01/19 13:59:09;;;;;;;;;;;;;;;;;;7371237;19;834;-76
2023/01/19 14:01:37;;;;;;;;;;;;;;;;;;7371869;19;611;-75
2023/01/19 14:04:05;;;;;;;;;;;;;;;;;;7369966;19;1290;-75
2023/01/19 14:06:33;;;;;;;;;;;;;;;;;;7370156;19;1865;-75
2023/01/19 14:09:01;;;;;;;;;;;;;;;;;;7371934;19;810;-75
2023/01/19 14:11:29;;;;;;;;;;;;;;;;;;7372702;19;812;-76
2023/01/19 14:13:58;;;;;;;;;;;;;;;;;;7371088;19;1314;-75
2023/01/19 14:16:26;;;;;;;;;;;;;;;;;;7372549;19;823;-75
2023/01/19 14:18:54;;;;;;;;;;;;;;;;;;7370413;19;852;-75
2023/01/19 14:21:22;;;;;;;;;;;;;;;;;;7372280;19;864;-75
2023/01/19 14:23:51;;;;;;;;;;;;;;;;;;7370539;19;1337;-75
2023/01/19 14:26:19;;;;;;;;;;;;;;;;;;7370846;19;1810;-75
2023/01/19 14:28:47;;;;;;;;;;;;;;;;;;7368500;19;795;-75
2023/01/19 14:31:15;;;;;;;;;;;;;;;;;;7371306;19;834;-74
2023/01/19 14:33:44;;;;;;;;;;;;;;;;;;7370014;19;1294;-74
2023/01/19 14:36:13;;;;;;;;;;;;;;;;;;7371887;19;938;-75
2023/01/19 14:38:42;;;;;;;;;;;;;;;;;;7371474;19;811;-74
2023/01/19 14:41:10;;;;;;;;;;;;;;;;;;7371461;19;711;-75
2023/01/19 14:43:38;;;;;;;;;;;;;;;;;;7369783;19;1294;-74
2023/01/19 14:46:06;;;;;;;;;;;;;;;;;;7368089;19;1857;-75
2023/01/19 14:48:35;;;;;;;;;;;;;;;;;;7368222;19;836;-76
2023/01/19 14:51:03;;;;;;;;;;;;;;;;;;7370212;19;824;-75
2023/01/19 14:53:32;;;;;;;;;;;;;;;;;;7370942;19;1340;-76
2023/01/19 14:56:00;;;;;;;;;;;;;;;;;;7372503;19;815;-74
2023/01/19 14:58:28;;;;;;;;;;;;;;;;;;7370545;19;815;-75
2023/01/19 15:00:57;;;;;;;;;;;;;;;;;;7375748;19;1593;-76
2023/01/19 15:03:25;;;;;;;;;;;;;;;;;;7368574;19;1322;-76
2023/01/19 15:05:53;;;;;;;;;;;;;;;;;;7368719;19;1850;-76
2023/01/19 15:08:21;;;;;;;;;;;;;;;;;;7371501;19;808;-75
2023/01/19 15:10:49;;;;;;;;;;;;;;;;;;7371635;19;740;-75
2023/01/19 15:13:18;;;;;;;;;;;;;;;;;;7370666;19;1274;-75
2023/01/19 15:15:46;;;;;;;;;;;;;;;;;;7370089;19;859;-75
2023/01/19 15:18:14;;;;;;;;;;;;;;;;;;7369698;19;773;-75
2023/01/19 15:20:42;;;;;;;;;;;;;;;;;;7369769;19;855;-74
2023/01/19 15:23:10;;;;;;;;;;;;;;;;;;7367403;19;1199;-75
2023/01/19 15:25:39;;;;;;;;;;;;;;;;;;7369018;19;885;-75
2023/01/19 15:28:07;;;;;;;;;;;;;;;;;;7368548;19;861;-75
2023/01/19 15:30:35;;;;;;;;;;;;;;;;;;7369925;19;859;-75
2023/01/19 15:33:04;;;;;;;;;;;;;;;;;;7369949;19;1322;-75
2023/01/19 15:35:32;;;;;;;;;;;;;;;;;;7369366;19;894;-76
2023/01/19 15:38:00;;;;;;;;;;;;;;;;;;7370224;19;830;-75
2023/01/19 15:40:28;;;;;;;;;;;;;;;;;;7366146;19;890;-75
2023/01/19 15:42:56;;;;;;;;;;;;;;;;;;7368363;19;728;-75
2023/01/19 15:45:25;;;;;;;;;;;;;;;;;;7366421;19;1397;-75
2023/01/19 15:47:53;;;;;;;;;;;;;;;;;;7366498;19;1837;-75
2023/01/19 15:50:21;;;;;;;;;;;;;;;;;;7368087;19;820;-75
2023/01/19 15:52:49;;;;;;;;;;;;;;;;;;7370444;19;850;-74
2023/01/19 15:55:17;;;;;;;;;;;;;;;;;;7367779;19;1338;-74
2023/01/19 15:57:46;;;;;;;;;;;;;;;;;;7368807;19;808;-74
2023/01/19 16:00:14;;;;;;;;;;;;;;;;;;7369559;19;792;-75
2023/01/19 16:02:42;;;;;;;;;;;;;;;;;;7367468;19;851;-74
2023/01/19 16:05:10;;;;;;;;;;;;;;;;;;7363804;19;1802;-75
2023/01/19 16:07:38;;;;;;;;;;;;;;;;;;7363334;19;1833;-74
2023/01/19 16:10:08;;;;;;;;;;;;;;;;;;7367217;19;797;-75
2023/01/19 16:12:36;;;;;;;;;;;;;;;;;;7366635;19;900;-75
2023/01/19 16:15:04;;;;;;;;;;;;;;;;;;7365726;19;1280;-76
2023/01/19 16:17:32;;;;;;;;;;;;;;;;;;7368265;19;802;-76
2023/01/19 16:20:00;;;;;;;;;;;;;;;;;;7367672;19;812;-76
2023/01/19 16:22:29;;;;;;;;;;;;;;;;;;7366528;19;815;-75
2023/01/19 16:24:57;;;;;;;;;;;;;;;;;;7367150;19;1287;-75
2023/01/19 16:27:25;;;;;;;;;;;;;;;;;;7365706;19;1837;-75
2023/01/19 16:29:54;;;;;;;;;;;;;;;;;;7366023;19;748;-76
2023/01/19 16:32:22;;;;;;;;;;;;;;;;;;7364945;19;956;-75
2023/01/19 16:34:50;;;;;;;;;;;;;;;;;;7364288;19;1278;-76
2023/01/19 16:37:18;;;;;;;;;;;;;;;;;;7366994;19;898;-75
2023/01/19 16:39:48;;;;;;;;;;;;;;;;;;7366000;19;819;-75
2023/01/19 16:42:18;;;;;;;;;;;;;;;;;;7367854;19;1667;-76
2023/01/19 16:44:46;;;;;;;;;;;;;;;;;;7368127;19;1345;-73
2023/01/19 16:47:15;;;;;;;;;;;;;;;;;;7366742;19;1849;-75
2023/01/19 16:49:43;;;;;;;;;;;;;;;;;;7369090;19;2216;-75
2023/01/19 16:52:11;;;;;;;;;;;;;;;;;;7373865;19;1860;-76
2023/01/19 16:54:39;;;;;;;;;;;;;;;;;;7371917;19;1887;-75
2023/01/19 16:57:07;;;;;;;;;;;;;;;;;;7376602;19;1638;-75
2023/01/19 16:59:36;;;;;;;;;;;;;;;;;;7376564;19;1794;-74
2023/01/19 17:02:04;;;;;;;;;;;;;;;;;;7376484;19;1497;-75
2023/01/19 17:04:32;;;;;;;;;;;;;;;;;;7374312;19;1680;-75
2023/01/19 17:07:00;;;;;;;;;;;;;;;;;;7375443;19;1834;-75
2023/01/19 17:09:28;;;;;;;;;;;;;;;;;;7382112;19;799;-75
2023/01/19 17:11:57;;;;;;;;;;;;;;;;;;7388455;19;1720;-75
2023/01/19 17:14:25;;;;;;;;;;;;;;;;;;7388442;19;1317;-74
2023/01/19 17:16:53;;;;;;;;;;;;;;;;;;7394631;19;1499;-74
2023/01/19 17:19:21;;;;;;;;;;;;;;;;;;7393787;19;1771;-75
2023/01/19 17:21:50;;;;;;;;;;;;;;;;;;7392086;19;1657;-75
2023/01/19 17:24:18;;;;;;;;;;;;;;;;;;7390438;19;1521;-74
2023/01/19 17:26:47;;;;;;;;;;;;;;;;;;7390059;19;1856;-75
2023/01/19 17:29:15;;;;;;;;;;;;;;;;;;7390241;19;1619;-74
2023/01/19 17:31:44;;;;;;;;;;;;;;;;;;7388355;19;1750;-74